Latest Weather Observations for Mount Hotham Airport

IDV60801

Issued at 3:31 pm EST Sunday 30 August 2015 (issued every 30 minutes, with the page automatically refreshed every 10 minutes)

About weather observations | Map of weather stations | Latest weather observations for VIC | Other Formats
Station Details ID: 083055 Name: MOUNT HOTHAM AIRPORT Lat: -37.05 Lon: 147.33 Height: 1295.4 m
Data from the previous 72 hours. | See also: Recent months at Mount Hotham Airport
Date/Time
EST
Temp
°C
App
Temp
°C
Dew
Point
Rel
Hum
%
Delta-T
°C
Wind Press
QNH
hPa
Press
MSL
hPa
Rain
since 9 am
mm
Dir
 
Spd
km/h
Gust
km/h
Spd
kts
Gust
kts
30/03:30pm 4.3 0.1 -0.7 70 2.0 S 11 15 6 8 1019.6 - 0.0
30/03:00pm 5.2 1.2 0.2 70 2.1 S 11 19 6 10 1019.7 1023.1 0.0
30/02:30pm 4.4 0.1 -1.4 66 2.3 SSE 11 19 6 10 1019.8 - 0.0
30/02:00pm 5.5 1.7 -0.5 65 2.5 SSW 9 17 5 9 1019.9 - 0.0
30/01:30pm 5.4 0.8 -1.3 62 2.7 SSW 13 19 7 10 1019.9 - 0.0
30/01:00pm 4.8 0.7 -0.4 69 2.1 S 11 22 6 12 1020.2 - 0.0
30/12:30pm 4.2 0.3 -1.2 68 2.2 SSW 9 19 5 10 1020.4 - 0.0
30/12:00pm 4.2 -0.3 -0.6 71 1.9 S 13 20 7 11 1020.6 1024.0 0.0
30/11:30am 4.2 -0.6 0.0 74 1.7 S 15 26 8 14 1021.1 - 0.0
30/11:00am 2.6 -2.3 -0.3 81 1.2 SSW 15 20 8 11 1021.2 - 0.0
30/10:30am 2.7 -1.3 0.3 84 1.0 S 11 20 6 11 1021.3 - 0.0
30/10:00am 2.2 -2.1 1.0 92 0.5 S 13 24 7 13 1021.2 - 0.0
30/09:30am 1.4 -2.6 0.7 95 0.3 S 11 20 6 11 1021.3 - 0.0
30/09:00am 0.8 -3.6 0.5 98 0.1 SSW 13 20 7 11 1021.2 1024.6 0.4
30/08:30am 0.6 -3.8 0.5 99 0.0 S 13 24 7 13 1021.2 - 0.4
30/08:00am 0.1 -4.7 0.0 99 0.0 S 15 24 8 13 1021.0 - 0.4
30/07:47am 0.2 -4.2 0.1 99 0.0 S 13 24 7 13 1020.8 - 0.4
30/07:36am 0.2 -4.2 0.1 99 0.0 S 13 20 7 11 1020.7 - 0.4
30/07:30am 0.2 -4.2 0.1 99 0.0 S 13 26 7 14 1020.6 - 0.4
30/07:25am 0.2 -4.6 0.1 99 0.0 S 15 26 8 14 1020.5 - 0.4
30/07:00am 0.2 -3.9 0.1 99 0.0 S 11 20 6 11 1020.3 - 0.4
30/06:30am 0.1 -4.0 0.0 99 0.0 S 11 15 6 8 1019.9 - 0.4
30/06:00am 0.1 -3.0 0.0 99 0.0 SSW 6 11 3 6 1019.8 1023.2 0.4
30/05:30am 0.0 -3.7 -0.1 99 0.0 SW 9 13 5 7 1019.8 - 0.4
30/05:27am 0.0 -3.3 -0.1 99 0.0 SSW 7 13 4 7 1019.9 - 0.4
30/05:00am 0.0 -3.3 -0.1 99 0.0 S 7 11 4 6 1019.9 - 0.4
30/04:30am 0.0 -3.3 -0.1 99 0.0 S 7 13 4 7 1019.8 - 0.4
30/04:00am 0.2 -3.5 0.1 99 0.0 S 9 15 5 8 1019.8 - 0.4
30/03:48am 0.2 -3.5 0.1 99 0.0 SSW 9 17 5 9 1019.9 - 0.4
30/03:30am 0.2 -2.9 0.1 99 0.0 SSW 6 17 3 9 1019.8 - 0.4
30/03:24am 0.2 -2.5 0.1 99 0.0 S 4 9 2 5 1019.8 - 0.4
30/03:00am 0.3 -3.4 0.2 99 0.0 S 9 17 5 9 1020.1 1023.4 0.4
30/02:30am 0.3 -3.7 0.2 99 0.0 S 11 19 6 10 1020.2 - 0.4
30/02:00am 0.2 -3.9 0.1 99 0.0 S 11 20 6 11 1020.5 - 0.4
30/01:41am 0.2 -3.9 0.1 99 0.0 S 11 20 6 11 1020.6 - 0.4
30/01:30am 0.2 -4.6 0.1 99 0.0 S 15 24 8 13 1020.6 - 0.4
30/01:00am 0.3 -4.9 0.2 99 0.0 S 17 26 9 14 1020.8 - 0.4
30/12:30am 0.3 -4.5 0.2 99 0.0 S 15 22 8 12 1020.7 - 0.4
30/12:20am 0.4 -4.8 0.3 99 0.0 S 17 24 9 13 1020.7 - 0.4
30/12:00am 0.5 -5.2 0.4 99 0.0 S 20 30 11 16 1020.7 1024.1 0.4
 
Date/Time
EST
Temp
°C
App
Temp
°C
Dew
Point
Rel
Hum
%
Delta-T
°C
Wind Press
QNH
hPa
Press
MSL
hPa
Rain
since 9 am
mm
Dir
 
Spd
km/h
Gust
km/h
Spd
kts
Gust
kts
29/11:56pm 0.6 -4.9 0.5 99 0.0 S 19 28 10 15 1020.7 - 0.4
29/11:30pm 0.6 -3.8 0.5 99 0.0 S 13 20 7 11 1021.0 - 0.4
29/11:00pm 0.5 -4.7 0.4 99 0.0 S 17 28 9 15 1021.1 - 0.4
29/10:50pm 0.6 -4.5 0.5 99 0.0 S 17 30 9 16 1021.0 - 0.4
29/10:30pm 0.7 -4.4 0.6 99 0.0 SSW 17 24 9 13 1021.2 - 0.2
29/10:00pm 0.9 -3.8 0.8 99 0.0 S 15 22 8 12 1021.3 - 0.2
29/09:32pm 1.0 -3.7 0.9 99 0.0 SSW 15 22 8 12 1021.2 - 0.2
29/09:30pm 1.0 -3.7 0.9 99 0.0 SSW 15 20 8 11 1021.2 - 0.2
29/09:02pm 1.2 -2.3 1.1 99 0.0 SSW 9 15 5 8 1021.2 - 0.0
29/09:00pm 1.2 -2.3 1.1 99 0.0 SSW 9 15 5 8 1021.2 1024.6 0.0
29/08:30pm 1.2 -2.3 1.1 99 0.0 SSW 9 17 5 9 1021.1 - 0.0
29/08:15pm 1.3 -3.0 1.2 99 0.0 SSW 13 20 7 11 1021.1 - 0.0
29/08:00pm 1.2 -2.7 1.1 99 0.0 SW 11 19 6 10 1020.8 - 0.0
29/07:38pm 1.0 -2.0 0.9 99 0.0 WSW 6 9 3 5 1021.0 - 0.0
29/07:30pm 1.1 -2.1 1.0 99 0.0 WSW 7 13 4 7 1021.0 - 0.0
29/07:08pm 1.2 -1.9 1.1 99 0.0 SW 7 13 4 7 1020.8 - 0.0
29/07:00pm 1.1 -2.4 1.0 99 0.0 SW 9 15 5 8 1020.8 - 0.0
29/06:30pm 1.3 -1.9 1.0 98 0.1 W 7 15 4 8 1020.6 - 0.0
29/06:00pm 1.0 -2.3 0.4 96 0.2 SW 7 11 4 6 1020.4 1023.8 0.0
29/05:30pm 1.4 -3.0 0.2 92 0.5 SW 13 17 7 9 1020.4 - 0.0
29/05:00pm 1.9 -1.7 0.4 90 0.6 W 9 13 5 7 1020.2 - 0.0
29/04:30pm 2.7 -1.7 0.1 83 1.1 SW 13 26 7 14 1020.2 - 0.0
29/04:00pm 4.2 -0.1 1.1 80 1.3 SW 13 20 7 11 1020.1 - 0.0
29/03:30pm 3.5 -1.8 -0.3 76 1.5 SW 17 26 9 14 1019.9 - 0.0
29/03:00pm 3.9 -0.6 -0.5 73 1.8 SW 13 20 7 11 1019.8 1023.2 0.0
29/02:30pm 4.0 -0.2 -0.8 71 1.9 SW 11 24 6 13 1019.8 - 0.0
29/02:00pm 4.6 -0.8 -1.4 65 2.4 SSW 17 30 9 16 1019.8 - 0.0
29/01:30pm 5.4 -0.3 -0.4 66 2.4 WSW 19 33 10 18 1019.8 - 0.0
29/01:00pm 3.2 -2.3 -2.1 68 2.0 SW 17 30 9 16 1020.3 - 0.0
29/12:30pm 4.0 -0.6 -1.4 68 2.1 SW 13 24 7 13 1020.5 - 0.0
29/12:00pm 4.0 -0.6 -0.8 71 1.9 SW 13 22 7 12 1020.5 1023.9 0.0
29/11:30am 2.4 -3.5 -2.5 70 1.9 SW 19 33 10 18 1020.7 - 0.0
29/11:00am 1.9 -3.4 -3.4 68 2.1 WSW 15 28 8 15 1020.7 - 0.0
29/10:30am 1.5 -3.5 -4.1 66 2.1 SW 13 20 7 11 1021.1 - 0.0
29/10:00am 0.6 -4.9 -5.4 64 2.1 SW 15 28 8 15 1020.8 - 0.0
29/09:30am 0.5 -4.9 -4.3 70 1.7 SSW 15 20 8 11 1021.0 - 0.0
29/09:00am 0.2 -3.7 -5.0 68 1.8 SW 7 15 4 8 1020.8 1024.2 1.8
29/08:30am -1.1 -5.3 -3.9 81 0.9 WSW 9 13 5 7 1020.5 - 1.8
29/08:00am -1.9 -6.1 -3.8 87 0.6 SW 9 15 5 8 1020.6 - 1.8
29/07:49am -2.1 -6.3 -3.7 89 0.5 SW 9 15 5 8 1020.5 - 1.8
29/07:39am -2.3 -6.9 -3.9 89 0.5 SW 11 17 6 9 1020.4 - 1.8
29/07:30am -2.6 -7.2 -4.0 90 0.4 SW 11 15 6 8 1020.3 - 1.8
29/07:00am -4.7 -9.1 -5.9 91 0.2 SW 9 11 5 6 1020.2 - 1.8
29/06:30am -4.0 -9.1 -4.8 94 0.1 WNW 13 15 7 8 1019.7 - 1.8
29/06:00am -3.2 -7.5 -4.5 91 0.3 SW 9 13 5 7 1020.1 1023.4 1.8
29/05:30am -2.8 -7.7 -3.3 96 0.0 SSW 13 22 7 12 1020.3 - 1.8
29/05:26am -3.0 -7.2 -3.5 96 0.0 SW 9 20 5 11 1020.2 - 1.8
29/05:02am -3.5 -7.2 -4.3 94 0.1 SE 6 7 3 4 1020.3 - 1.8
29/05:00am -3.6 -7.3 -4.4 94 0.1 SE 6 7 3 4 1020.3 - 1.8
29/04:30am -3.5 -7.4 -4.3 94 0.1 WSW 7 11 4 6 1020.1 - 1.8
29/04:00am -2.9 -6.7 -3.9 93 0.2 W 7 9 4 5 1020.1 - 1.8
29/03:30am -3.3 -7.0 -4.4 92 0.2 WNW 6 7 3 4 1020.1 - 1.8
29/03:00am -2.7 -5.9 -3.5 94 0.2 W 4 7 2 4 1020.2 1023.5 1.8
29/02:30am -2.2 -5.7 -3.0 94 0.2 WSW 6 7 3 4 1020.4 - 1.8
29/02:00am -1.6 -5.0 -2.0 97 0.1 WSW 6 7 3 4 1020.7 - 1.8
29/01:30am -1.8 -5.4 -2.2 97 0.1 SW 7 11 4 6 1021.0 - 1.8
29/01:00am -1.5 -4.9 -1.8 98 0.0 W 6 7 3 4 1021.1 - 1.8
29/12:30am -1.1 -4.6 -1.2 99 0.0 W 7 13 4 7 1021.1 - 1.8
29/12:00am -0.8 -4.2 -0.9 99 0.0 WSW 7 9 4 5 1021.2 1024.6 1.8
 
Date/Time
EST
Temp
°C
App
Temp
°C
Dew
Point
Rel
Hum
%
Delta-T
°C
Wind Press
QNH
hPa
Press
MSL
hPa
Rain
since 9 am
mm
Dir
 
Spd
km/h
Gust
km/h
Spd
kts
Gust
kts
28/11:30pm -0.2 -3.0 -0.3 99 0.0 WSW 4 7 2 4 1021.3 - 1.8
28/11:00pm 0.2 -2.9 0.1 99 0.0 SW 6 7 3 4 1021.5 - 1.8
28/10:30pm 0.4 -2.9 0.3 99 0.0 WSW 7 9 4 5 1021.8 - 1.8
28/10:00pm 0.7 -2.5 0.6 99 0.0 WSW 7 11 4 6 1021.9 - 1.8
28/09:30pm 0.9 -1.7 0.8 99 0.0 NW 4 7 2 4 1022.1 - 1.8
28/09:00pm 0.7 -2.3 0.6 99 0.0 SW 6 15 3 8 1022.0 1025.4 1.8
28/08:30pm 0.8 -2.8 0.7 99 0.0 SW 9 19 5 10 1022.1 - 1.8
28/08:00pm 0.7 -3.7 0.6 99 0.0 SW 13 20 7 11 1021.9 - 1.8
28/07:30pm 0.7 -3.7 0.6 99 0.0 SW 13 20 7 11 1021.6 - 1.8
28/07:08pm 0.6 -4.2 0.5 99 0.0 SSW 15 22 8 12 1021.8 - 1.8
28/07:00pm 0.6 -4.2 0.5 99 0.0 SSW 15 22 8 12 1021.8 - 1.8
28/06:30pm 0.7 -3.7 0.6 99 0.0 S 13 20 7 11 1021.6 - 1.0
28/06:26pm 1.0 -4.1 0.9 99 0.0 S 17 24 9 13 1021.5 - 0.8
28/06:00pm 1.5 -3.1 1.4 99 0.0 S 15 20 8 11 1021.2 1024.6 0.6
28/05:30pm 2.2 -1.9 2.1 99 0.0 S 13 19 7 10 1021.1 - 0.2
28/05:00pm 2.3 -3.0 1.7 96 0.3 SSW 19 22 10 12 1020.8 - 0.2
28/04:30pm 3.6 -0.5 2.3 91 0.6 S 13 17 7 9 1020.6 - 0.2
28/04:00pm 4.1 0.4 2.1 87 0.9 SSW 11 17 6 9 1020.6 - 0.2
28/03:30pm 4.5 0.7 1.9 83 1.1 S 11 19 6 10 1020.5 - 0.0
28/03:00pm 4.7 1.6 1.6 80 1.3 SSE 7 11 4 6 1020.5 1023.9 0.0
28/02:30pm 5.2 1.6 0.6 72 1.9 WSW 9 13 5 7 1020.7 - 0.0
28/02:00pm 4.4 1.5 2.6 88 0.8 SW 7 11 4 6 1021.0 - 0.0
28/01:30pm 4.6 0.7 0.9 77 1.6 S 11 24 6 13 1021.1 - 0.0
28/01:00pm 5.0 0.6 0.6 73 1.9 SSW 13 20 7 11 1021.1 - 0.0
28/12:30pm 5.3 1.4 1.1 74 1.8 SSW 11 20 6 11 1021.4 - 0.0
28/12:00pm 5.0 1.1 1.1 76 1.7 S 11 17 6 9 1021.8 1025.2 0.0
28/11:30am 4.7 0.5 1.4 79 1.4 S 13 20 7 11 1021.9 - 0.0
28/11:00am 4.5 0.2 1.0 78 1.5 SSW 13 20 7 11 1021.9 - 0.0
28/10:30am 4.0 0.5 1.0 81 1.3 SW 9 20 5 11 1021.6 - 0.0
28/10:00am 3.5 -0.8 0.9 83 1.1 S 13 26 7 14 1021.8 - 0.0
28/09:30am 2.7 -2.1 0.4 85 0.9 S 15 22 8 12 1021.5 - 0.0
28/09:00am 2.4 -2.7 0.5 87 0.8 SSW 17 28 9 15 1021.5 1024.9 9.2
28/08:30am 2.0 -3.5 0.4 89 0.7 SSW 19 26 10 14 1021.3 - 9.2
28/08:00am 2.1 -1.8 1.2 94 0.4 S 11 20 6 11 1021.2 - 9.2
28/07:30am 1.4 -2.9 0.8 96 0.2 SSW 13 28 7 15 1021.0 - 9.2
28/07:00am 1.3 -3.4 1.2 99 0.0 S 15 22 8 12 1020.6 - 9.2
28/06:30am 1.4 -4.9 1.3 99 0.0 SSW 24 33 13 18 1020.2 - 9.2
28/06:00am 1.5 -3.9 1.4 99 0.0 S 19 32 10 17 1019.6 1023.0 9.2
28/05:30am 1.7 -4.6 1.6 99 0.0 SSW 24 41 13 22 1019.3 - 9.2
28/05:11am 1.8 -4.5 1.7 99 0.0 S 24 37 13 20 1019.0 - 9.2
28/05:00am 1.9 -4.4 1.8 99 0.0 S 24 41 13 22 1018.8 - 9.2
28/04:30am 2.1 -2.8 2.0 99 0.0 S 17 33 9 18 1018.4 - 9.2
28/04:24am 2.1 -2.8 2.0 99 0.0 S 17 28 9 15 1018.5 - 9.2
28/04:16am 2.1 -2.8 2.0 99 0.0 SSW 17 26 9 14 1018.4 - 9.2
28/04:01am 2.1 -2.8 2.0 99 0.0 SSW 17 32 9 17 1018.4 - 9.0
28/04:00am 2.1 -2.8 2.0 99 0.0 SSW 17 32 9 17 1018.4 - 9.0
28/03:59am 2.1 -3.2 2.0 99 0.0 SSW 19 32 10 17 1018.2 - 9.0
28/03:41am 2.2 -3.3 2.1 99 0.0 SSW 20 30 11 16 1018.0 - 8.8
28/03:30am 2.1 -3.2 2.0 99 0.0 SSW 19 28 10 15 1017.9 - 8.6
28/03:19am 2.2 -3.1 2.1 99 0.0 SSW 19 30 10 16 1017.9 - 8.6
28/03:00am 2.3 -1.8 2.2 99 0.0 SSW 13 22 7 12 1018.0 1021.3 8.4
28/02:30am 2.4 -2.5 2.3 99 0.0 SSW 17 30 9 16 1018.1 - 7.8
28/02:12am 2.4 -2.1 2.3 99 0.0 SSW 15 24 8 13 1018.2 - 7.6
28/02:03am 2.4 -2.5 2.3 99 0.0 SSW 17 26 9 14 1018.2 - 7.6
28/02:00am 2.3 -2.2 2.2 99 0.0 SSW 15 22 8 12 1018.2 - 7.6
28/01:53am 2.3 -2.2 2.2 99 0.0 SSW 15 22 8 12 1018.2 - 7.4
28/01:40am 2.4 -1.3 2.3 99 0.0 SSW 11 19 6 10 1018.2 - 7.2
28/01:30am 2.4 -1.3 2.3 99 0.0 SW 11 17 6 9 1018.4 - 6.8
28/01:04am 2.2 -0.8 2.1 99 0.0 SSW 7 11 4 6 1018.5 - 6.6
28/01:00am 2.2 -0.8 2.1 99 0.0 SSW 7 15 4 8 1018.5 - 6.4
28/12:30am 2.2 -1.9 2.1 99 0.0 S 13 19 7 10 1018.4 - 6.2
28/12:00am 2.4 -2.1 2.3 99 0.0 SSW 15 26 8 14 1018.4 1021.7 5.6
 
Date/Time
EST
Temp
°C
App
Temp
°C
Dew
Point
Rel
Hum
%
Delta-T
°C
Wind Press
QNH
hPa
Press
MSL
hPa
Rain
since 9 am
mm
Dir
 
Spd
km/h
Gust
km/h
Spd
kts
Gust
kts
27/11:36pm 2.6 -1.8 2.5 99 0.0 SSW 15 22 8 12 1018.4 - 4.8
27/11:30pm 2.6 -1.5 2.5 99 0.0 S 13 20 7 11 1018.4 - 4.6
27/11:00pm 2.8 -0.8 2.7 99 0.0 SSW 11 17 6 9 1018.2 - 4.0
27/10:30pm 2.7 -0.2 2.6 99 0.0 SSW 7 11 4 6 1018.2 - 4.0
27/10:00pm 2.7 -0.2 2.6 99 0.0 S 7 11 4 6 1018.4 - 4.0
27/09:30pm 2.8 -0.8 2.7 99 0.0 SSW 11 15 6 8 1018.4 - 3.8
27/09:00pm 2.8 -0.8 2.7 99 0.0 SSW 11 17 6 9 1018.2 1021.5 3.8
27/08:56pm 2.8 -0.5 2.7 99 0.0 SSW 9 13 5 7 1018.2 - 3.8
27/08:54pm 2.8 -0.5 2.7 99 0.0 SSW 9 13 5 7 1018.2 - 3.8
27/08:31pm 2.9 0.2 2.8 99 0.0 SW 6 9 3 5 1018.1 - 3.8
27/08:30pm 2.9 0.2 2.8 99 0.0 SW 6 9 3 5 1018.1 - 3.8
27/08:26pm 3.0 0.3 2.7 98 0.1 SW 6 9 3 5 1018.1 - 3.8
27/08:10pm 3.0 0.7 2.6 97 0.2 SW 4 7 2 4 1018.1 - 3.8
27/08:00pm 3.0 0.6 2.4 96 0.3 SSW 4 7 2 4 1018.0 - 3.8
27/07:30pm 3.1 0.2 2.4 95 0.3 SW 7 15 4 8 1017.6 - 3.8
27/07:00pm 3.0 0.0 2.3 95 0.3 SW 7 11 4 6 1017.6 - 3.8
27/06:30pm 2.8 -0.3 1.6 92 0.5 WSW 7 11 4 6 1017.2 - 3.8
27/06:00pm 3.0 -0.9 1.4 89 0.7 WSW 11 17 6 9 1016.9 1020.1 3.8
27/05:30pm 4.1 -0.2 1.3 82 1.2 SW 13 20 7 11 1016.5 - 3.8
27/05:00pm 5.5 2.0 1.1 73 1.9 WSW 9 15 5 8 1016.2 - 3.8
27/04:30pm 5.6 1.3 1.3 74 1.9 W 13 17 7 9 1016.1 - 3.8
27/04:00pm 8.2 4.3 1.4 62 3.0 W 11 17 6 9 1016.0 - 3.8

Other Formats:

Comma delimited format used in spreadsheet applications
http://www.bom.gov.au/fwo/IDV60801/IDV60801.94905.axf

JavaScript Object Notation format (JSON) in row-major order
http://www.bom.gov.au/fwo/IDV60801/IDV60801.94905.json